KAIK/AIK METAR and TAF weather

Enter ICAO airport designator
Station Type Date Time Source
KAIK METAR 2018/07/21 04:15 UTC NOAA

KAIK 210415Z AUTO 00000KT 10SM CLR 21/21 A2998 RMK AO2 LTG DSNT NW


Station Type Date Time Source
KAIK Decoded METAR 2018/07/21 04:15 UTC NOAA

Station name not available
Jul 21, 2018 - 12:15 AM EDT / 2018.07.21 0415 UTC
Wind: Calm:0
Visibility: 10 mile(s):0
Sky conditions: clear
Weather: Lightning observed
Temperature: 69 F (21 C)
Dew Point: 69 F (21 C)
Relative Humidity: 100%
Pressure (altimeter): 29.98 in. Hg (1015 hPa)
ob: KAIK 210415Z AUTO 00000KT 10SM CLR 2

Station Type Date Time Source
KAIK TAF UTC NOAA

Error!


Example: see airport list